Time;durP1;ratioP1;P1;durP2;ratioP2;P2;SDS_P1;SDS_P2;PMS_P1;PMS_P2;Temp;Humidity;BMP_temperature;BMP_pressure;BME280_temperature;BME280_humidity;BME280_pressure;Samples;Min_cycle;Max_cycle;Signal;HPM_P1;HPM_P2
2022/02/16 00:31:59;;;;;;;7.05;5.18;;;;;;;4.44;66.42;97461.19;11977631;24;20040;-82
2022/02/16 00:37:21;;;;;;;8.43;5.57;;;;;;;4.48;66.14;97449.72;9932831;29;20043;-85
2022/02/16 00:55:42;;;;;;;6.97;4.32;;;;;;;4.48;66.14;97439.41;10081427;24;19921;-84
2022/02/16 01:01:06;;;;;;;8.63;4.20;;;;;;;4.45;65.86;97432.25;10040527;29;20037;-85
2022/02/16 01:06:28;;;;;;;5.65;3.88;;;;;;;4.42;65.73;97424.31;10039817;29;20038;-84
2022/02/16 01:11:50;;;;;;;5.55;3.05;;;;;;;4.33;66.09;97403.53;10039783;29;20037;-84
2022/02/16 01:17:14;;;;;;;5.75;4.05;;;;;;;4.30;65.71;97407.44;10027386;29;20046;-84
2022/02/16 01:22:52;;;;;;;6.00;3.53;;;;;;;4.33;65.50;97411.84;10045812;29;20060;-83
2022/02/16 01:28:14;;;;;;;5.72;3.65;;;;;;;4.31;65.40;97384.78;10036692;29;20042;-82
2022/02/16 01:33:36;;;;;;;4.97;3.38;;;;;;;4.36;65.03;97396.19;10039211;29;20045;-84
2022/02/16 01:38:58;;;;;;;6.25;3.28;;;;;;;4.30;65.45;97397.13;10039023;29;20058;-84
2022/02/16 01:44:24;;;;;;;4.93;2.67;;;;;;;4.31;64.67;97379.25;10024089;29;20058;-84
2022/02/16 01:49:51;;;;;;;4.95;3.08;;;;;;;4.30;64.63;97363.97;10051470;29;20030;-83
2022/02/16 01:55:15;;;;;;;7.45;3.20;;;;;;;4.28;64.60;97369.31;10026019;29;20042;-83
2022/02/16 02:00:40;;;;;;;7.40;3.00;;;;;;;4.34;64.48;97371.84;10038446;29;20060;-79
2022/02/16 02:06:03;;;;;;;4.82;2.63;;;;;;;4.24;64.58;97366.19;10037983;29;20060;-84
2022/02/16 02:11:26;;;;;;;4.88;2.65;;;;;;;4.20;64.15;97370.66;10062921;29;20031;-83
2022/02/16 02:16:54;;;;;;;7.05;3.00;;;;;;;4.15;64.51;97353.00;10051612;29;20045;-83
2022/02/16 02:22:15;;;;;;;5.22;2.85;;;;;;;4.11;64.99;97347.13;10009524;29;20057;-85
2022/02/16 02:27:37;;;;;;;5.60;3.28;;;;;;;4.12;64.47;97347.84;10049472;29;20091;-83
2022/02/16 02:32:59;;;;;;;6.65;2.97;;;;;;;4.10;64.66;97350.44;10037039;29;20050;-84
2022/02/16 02:38:21;;;;;;;4.75;3.17;;;;;;;4.10;64.82;97340.13;10049245;29;20054;-84
2022/02/16 02:43:43;;;;;;;4.93;3.22;;;;;;;4.03;64.22;97332.63;10021202;29;20034;-82
2022/02/16 02:49:05;;;;;;;4.78;3.38;;;;;;;4.03;64.42;97335.38;10024071;29;20030;-83
2022/02/16 02:54:27;;;;;;;4.28;3.40;;;;;;;4.08;64.59;97330.94;10035790;29;20046;-82
2022/02/16 02:59:49;;;;;;;5.65;3.50;;;;;;;4.04;64.16;97320.28;10035804;29;20030;-84
2022/02/16 03:05:12;;;;;;;5.68;3.47;;;;;;;3.98;64.50;97317.00;10035573;29;20054;-83
2022/02/16 03:10:34;;;;;;;6.43;3.70;;;;;;;3.94;64.70;97311.13;10022062;29;20038;-80
2022/02/16 03:15:57;;;;;;;5.85;3.70;;;;;;;3.87;64.83;97307.13;10047648;29;20030;-84
2022/02/16 03:21:20;;;;;;;5.63;3.65;;;;;;;3.82;64.54;97301.81;10047696;29;20054;-84
2022/02/16 03:26:42;;;;;;;5.32;4.00;;;;;;;3.78;64.98;97295.94;10034976;29;20062;-85
2022/02/16 03:32:06;;;;;;;6.07;4.43;;;;;;;3.78;64.72;97287.66;10035734;29;20116;-84
2022/02/16 03:37:28;;;;;;;5.07;3.17;;;;;;;3.70;64.43;97288.44;10047284;29;20034;-83
2022/02/16 04:08:01;;;;;;;4.03;3.05;;;;;;;3.58;64.22;97251.50;12123678;24;20028;-81
2022/02/16 04:45:04;;;;;;;5.05;2.70;;;;;;;3.86;63.24;97219.31;12152740;24;20219;-82
2022/02/16 04:50:27;;;;;;;4.40;2.20;;;;;;;3.85;63.89;97218.56;9991170;29;20048;-80
2022/02/16 04:55:49;;;;;;;4.47;2.55;;;;;;;3.78;63.62;97205.56;10770920;24;20021;-81
2022/02/16 05:01:14;;;;;;;3.63;2.20;;;;;;;3.82;63.54;97199.66;11545383;24;20025;-79
2022/02/16 05:06:38;;;;;;;3.60;2.03;;;;;;;3.89;63.37;97198.88;9942352;29;20456;-80
2022/02/16 05:12:01;;;;;;;3.22;1.50;;;;;;;3.98;63.21;97193.47;9920000;29;20452;-80
2022/02/16 05:17:25;;;;;;;3.50;1.55;;;;;;;4.01;62.56;97177.78;10524909;24;20048;-84
2022/02/16 05:41:22;;;;;;;2.78;1.42;;;;;;;4.16;61.55;97171.41;10157657;24;20086;-81
2022/02/16 05:46:44;;;;;;;5.13;2.00;;;;;;;4.18;61.37;97164.03;10082033;29;20041;-81
2022/02/16 05:52:10;;;;;;;4.53;1.83;;;;;;;4.22;61.68;97164.34;10075023;29;20053;-84
2022/02/16 05:57:32;;;;;;;4.95;1.90;;;;;;;4.17;61.42;97156.31;10062850;29;20109;-80
2022/02/16 06:02:54;;;;;;;4.22;1.58;;;;;;;4.09;60.76;97144.59;10069497;29;20050;-81
2022/02/16 06:08:16;;;;;;;4.30;2.17;;;;;;;4.10;61.32;97152.31;10053648;29;20042;-83
2022/02/16 06:13:38;;;;;;;4.10;1.90;;;;;;;4.25;61.16;97138.38;10072337;29;20049;-82
2022/02/16 06:19:03;;;;;;;5.80;1.98;;;;;;;4.39;61.02;97127.72;10061479;29;20047;-84
2022/02/16 06:24:24;;;;;;;5.15;1.73;;;;;;;5.14;61.23;97119.13;10039956;29;20049;-80
2022/02/16 06:29:48;;;;;;;2.40;1.30;;;;;;;6.84;59.79;97136.69;10040743;29;20101;-77
2022/02/16 06:35:21;;;;;;;3.17;1.58;;;;;;;6.89;56.69;97129.41;10026349;29;20045;-78
2022/02/16 06:40:43;;;;;;;3.67;1.65;;;;;;;5.90;57.41;97129.13;9996373;29;20463;-81
2022/02/16 06:46:05;;;;;;;2.85;1.40;;;;;;;5.76;58.03;97111.41;9996534;29;20060;-78
2022/02/16 06:51:26;;;;;;;4.30;1.85;;;;;;;5.69;56.66;97106.72;9984364;29;20050;-77
2022/02/16 06:56:48;;;;;;;3.20;1.60;;;;;;;6.68;57.26;97088.41;9973149;29;20083;-77
2022/02/16 07:02:33;;;;;;;3.50;1.58;;;;;;;6.68;55.91;97084.91;10001459;29;20057;-77
2022/02/16 07:08:04;;;;;;;3.80;1.85;;;;;;;6.88;55.44;97091.88;9999658;29;20394;-77
2022/02/16 07:13:42;;;;;;;7.68;2.03;;;;;;;8.01;53.06;97085.06;10000131;29;20062;-77
2022/02/16 07:19:04;;;;;;;4.53;1.90;;;;;;;7.75;53.54;97069.41;9986657;29;20073;-77
2022/02/16 07:24:28;;;;;;;5.00;1.63;;;;;;;7.18;54.31;97069.03;9999959;29;20046;-77
2022/02/16 07:29:50;;;;;;;8.38;1.90;;;;;;;7.15;53.35;97056.34;9988101;29;20481;-82
2022/02/16 07:35:12;;;;;;;4.78;1.40;;;;;;;7.22;53.55;97053.97;9985724;29;20045;-80
2022/02/16 07:40:34;;;;;;;4.53;1.45;;;;;;;7.26;53.97;97040.38;9991718;29;20058;-77
2022/02/16 07:45:56;;;;;;;2.78;1.10;;;;;;;7.33;52.63;97029.09;10028204;29;20038;-81
2022/02/16 07:51:19;;;;;;;2.72;1.02;;;;;;;7.59;52.41;97019.03;10000498;29;20102;-78
2022/02/16 07:56:58;;;;;;;2.80;1.00;;;;;;;7.81;52.39;97019.78;10002369;29;20098;-77
2022/02/16 08:02:19;;;;;;;3.45;1.00;;;;;;;8.28;51.45;97008.94;9984215;29;20469;-77
2022/02/16 08:07:41;;;;;;;2.75;1.13;;;;;;;8.29;51.14;97016.69;9969995;29;20409;-77
2022/02/16 08:13:04;;;;;;;3.10;1.23;;;;;;;8.39;51.18;97008.28;9995304;29;20046;-76
2022/02/16 08:18:38;;;;;;;6.07;1.20;;;;;;;8.56;50.18;96979.47;9985616;29;20050;-77
2022/02/16 08:23:59;;;;;;;2.63;1.20;;;;;;;8.45;50.19;96983.66;9995323;29;20303;-77
2022/02/16 08:29:20;;;;;;;8.27;2.05;;;;;;;8.16;50.17;96961.63;9988067;29;20049;-79
2022/02/16 08:34:43;;;;;;;3.42;1.15;;;;;;;8.06;50.33;96971.38;10019049;29;20037;-84
2022/02/16 08:40:10;;;;;;;2.65;0.90;;;;;;;7.85;50.71;96956.16;10016631;29;20068;-81
2022/02/16 08:45:32;;;;;;;2.83;1.15;;;;;;;7.98;50.44;96954.91;9988718;29;20187;-81
2022/02/16 08:50:53;;;;;;;2.00;1.15;;;;;;;8.15;49.90;96968.53;9983154;29;20370;-79
2022/02/16 08:56:14;;;;;;;4.03;1.25;;;;;;;8.73;49.41;96945.03;9985459;29;20052;-79
2022/02/16 09:01:35;;;;;;;3.78;1.45;;;;;;;8.97;49.09;96935.38;10001115;29;20054;-78
2022/02/16 09:12:37;;;;;;;3.05;1.23;;;;;;;11.23;46.86;96900.59;10010350;29;20054;-77
2022/02/16 09:17:58;;;;;;;3.35;1.20;;;;;;;13.14;43.79;96920.19;10002030;29;20046;-79
2022/02/16 09:23:20;;;;;;;4.82;1.15;;;;;;;14.57;40.33;96887.53;9995085;29;20054;-79
2022/02/16 09:28:42;;;;;;;3.22;1.00;;;;;;;21.96;29.79;96876.94;9957935;29;20047;-79
2022/02/16 09:34:03;;;;;;;1.45;0.57;;;;;;;21.34;27.53;96872.06;9949739;29;20083;-80
2022/02/16 09:39:23;;;;;;;1.85;0.80;;;;;;;16.76;31.42;96866.13;9968330;29;20065;-78
2022/02/16 09:44:46;;;;;;;3.22;1.13;;;;;;;16.38;32.29;96836.78;9999617;29;20105;-78
2022/02/16 09:50:07;;;;;;;2.53;0.90;;;;;;;17.48;30.65;96823.72;9999355;29;20099;-79
2022/02/16 09:55:29;;;;;;;2.38;0.90;;;;;;;16.56;30.87;96811.97;9986791;29;20046;-80
2022/02/16 10:01:06;;;;;;;1.85;0.90;;;;;;;15.16;33.07;96791.34;10000066;29;20537;-79
